sensor_id;sensor_type;location;lat;lon;timestamp;P1;durP1;ratioP1;P2;durP2;ratioP2
53833;SDS011;39735;51.432;5.482;2024-02-14T00:01:36;5.80;;;2.67;;
53833;SDS011;39735;51.432;5.482;2024-02-14T00:05:00;10.52;;;2.85;;
53833;SDS011;39735;51.432;5.482;2024-02-14T00:08:09;8.75;;;2.83;;
53833;SDS011;39735;51.432;5.482;2024-02-14T00:11:33;3.33;;;2.30;;
53833;SDS011;39735;51.432;5.482;2024-02-14T00:14:51;4.35;;;2.83;;
53833;SDS011;39735;51.432;5.482;2024-02-14T00:17:19;8.68;;;2.70;;
53833;SDS011;39735;51.432;5.482;2024-02-14T00:19:56;6.97;;;3.20;;
53833;SDS011;39735;51.432;5.482;2024-02-14T00:23:20;4.63;;;2.97;;
53833;SDS011;39735;51.432;5.482;2024-02-14T00:26:44;8.60;;;3.08;;
53833;SDS011;39735;51.432;5.482;2024-02-14T00:30:08;9.63;;;2.97;;
53833;SDS011;39735;51.432;5.482;2024-02-14T00:33:32;18.10;;;6.65;;
53833;SDS011;39735;51.432;5.482;2024-02-14T00:36:56;13.13;;;3.63;;
53833;SDS011;39735;51.432;5.482;2024-02-14T00:40:06;10.60;;;4.20;;
53833;SDS011;39735;51.432;5.482;2024-02-14T00:43:30;19.33;;;3.80;;
53833;SDS011;39735;51.432;5.482;2024-02-14T00:46:57;4.57;;;3.65;;
53833;SDS011;39735;51.432;5.482;2024-02-14T00:50:21;3.88;;;2.60;;
53833;SDS011;39735;51.432;5.482;2024-02-14T00:53:46;6.43;;;3.47;;
53833;SDS011;39735;51.432;5.482;2024-02-14T00:57:10;9.05;;;3.40;;
53833;SDS011;39735;51.432;5.482;2024-02-14T01:00:34;7.20;;;3.78;;
53833;SDS011;39735;51.432;5.482;2024-02-14T01:03:57;5.20;;;3.38;;
53833;SDS011;39735;51.432;5.482;2024-02-14T01:07:21;8.32;;;4.47;;
53833;SDS011;39735;51.432;5.482;2024-02-14T01:10:45;29.95;;;5.78;;
53833;SDS011;39735;51.432;5.482;2024-02-14T01:14:10;15.38;;;4.72;;
53833;SDS011;39735;51.432;5.482;2024-02-14T01:16:55;9.32;;;3.05;;
53833;SDS011;39735;51.432;5.482;2024-02-14T01:19:21;11.73;;;4.13;;
53833;SDS011;39735;51.432;5.482;2024-02-14T01:21:49;10.52;;;5.15;;
53833;SDS011;39735;51.432;5.482;2024-02-14T01:24:15;5.45;;;3.30;;
53833;SDS011;39735;51.432;5.482;2024-02-14T01:26:41;8.35;;;3.22;;
53833;SDS011;39735;51.432;5.482;2024-02-14T01:29:07;5.82;;;3.88;;
53833;SDS011;39735;51.432;5.482;2024-02-14T01:31:35;4.43;;;4.07;;
53833;SDS011;39735;51.432;5.482;2024-02-14T01:34:00;4.30;;;3.92;;
53833;SDS011;39735;51.432;5.482;2024-02-14T01:36:29;6.32;;;3.38;;
53833;SDS011;39735;51.432;5.482;2024-02-14T01:38:54;5.32;;;4.45;;
53833;SDS011;39735;51.432;5.482;2024-02-14T01:41:20;9.38;;;4.63;;
53833;SDS011;39735;51.432;5.482;2024-02-14T01:43:46;6.25;;;3.65;;
53833;SDS011;39735;51.432;5.482;2024-02-14T01:46:12;12.60;;;4.68;;
53833;SDS011;39735;51.432;5.482;2024-02-14T01:48:37;4.18;;;3.50;;
53833;SDS011;39735;51.432;5.482;2024-02-14T01:51:04;9.38;;;3.88;;
53833;SDS011;39735;51.432;5.482;2024-02-14T01:53:32;6.65;;;3.10;;
53833;SDS011;39735;51.432;5.482;2024-02-14T01:55:58;14.32;;;3.97;;
53833;SDS011;39735;51.432;5.482;2024-02-14T01:58:24;9.48;;;3.60;;
53833;SDS011;39735;51.432;5.482;2024-02-14T02:00:51;5.00;;;3.25;;
53833;SDS011;39735;51.432;5.482;2024-02-14T02:03:20;19.25;;;5.05;;
53833;SDS011;39735;51.432;5.482;2024-02-14T02:05:47;6.70;;;4.07;;
53833;SDS011;39735;51.432;5.482;2024-02-14T02:08:13;6.07;;;4.32;;
53833;SDS011;39735;51.432;5.482;2024-02-14T02:10:39;5.10;;;3.88;;
53833;SDS011;39735;51.432;5.482;2024-02-14T02:13:05;9.98;;;4.00;;
53833;SDS011;39735;51.432;5.482;2024-02-14T02:15:30;7.43;;;4.47;;
53833;SDS011;39735;51.432;5.482;2024-02-14T02:17:55;11.18;;;3.83;;
53833;SDS011;39735;51.432;5.482;2024-02-14T02:20:21;7.95;;;4.32;;
53833;SDS011;39735;51.432;5.482;2024-02-14T02:22:47;5.88;;;3.90;;
53833;SDS011;39735;51.432;5.482;2024-02-14T02:25:13;4.25;;;3.55;;
53833;SDS011;39735;51.432;5.482;2024-02-14T02:27:39;8.13;;;4.68;;
53833;SDS011;39735;51.432;5.482;2024-02-14T02:30:07;12.45;;;4.25;;
53833;SDS011;39735;51.432;5.482;2024-02-14T02:32:33;7.20;;;3.35;;
53833;SDS011;39735;51.432;5.482;2024-02-14T02:34:59;9.48;;;4.75;;
53833;SDS011;39735;51.432;5.482;2024-02-14T02:37:27;8.30;;;4.05;;
53833;SDS011;39735;51.432;5.482;2024-02-14T02:39:54;12.80;;;4.00;;
53833;SDS011;39735;51.432;5.482;2024-02-14T02:42:21;16.92;;;4.05;;
53833;SDS011;39735;51.432;5.482;2024-02-14T02:44:46;6.80;;;3.92;;
53833;SDS011;39735;51.432;5.482;2024-02-14T02:47:13;7.03;;;3.95;;
53833;SDS011;39735;51.432;5.482;2024-02-14T02:49:41;7.22;;;4.72;;
53833;SDS011;39735;51.432;5.482;2024-02-14T02:52:09;9.65;;;4.45;;
53833;SDS011;39735;51.432;5.482;2024-02-14T02:54:37;8.23;;;3.42;;
53833;SDS011;39735;51.432;5.482;2024-02-14T02:57:05;11.10;;;5.20;;
53833;SDS011;39735;51.432;5.482;2024-02-14T02:59:31;9.82;;;4.70;;
53833;SDS011;39735;51.432;5.482;2024-02-14T03:01:57;6.15;;;3.75;;
53833;SDS011;39735;51.432;5.482;2024-02-14T03:04:23;10.88;;;4.18;;
53833;SDS011;39735;51.432;5.482;2024-02-14T03:06:49;8.77;;;4.13;;
53833;SDS011;39735;51.432;5.482;2024-02-14T03:09:15;17.95;;;4.97;;
53833;SDS011;39735;51.432;5.482;2024-02-14T03:11:42;13.50;;;4.05;;
53833;SDS011;39735;51.432;5.482;2024-02-14T03:14:11;16.02;;;7.03;;
53833;SDS011;39735;51.432;5.482;2024-02-14T03:16:36;9.70;;;3.72;;
53833;SDS011;39735;51.432;5.482;2024-02-14T03:19:02;19.75;;;6.65;;
53833;SDS011;39735;51.432;5.482;2024-02-14T03:21:30;10.57;;;4.40;;
53833;SDS011;39735;51.432;5.482;2024-02-14T03:23:57;4.95;;;3.53;;
53833;SDS011;39735;51.432;5.482;2024-02-14T03:26:22;5.85;;;4.13;;
53833;SDS011;39735;51.432;5.482;2024-02-14T03:28:48;4.40;;;4.00;;
53833;SDS011;39735;51.432;5.482;2024-02-14T03:31:14;7.15;;;3.92;;
53833;SDS011;39735;51.432;5.482;2024-02-14T03:33:40;7.63;;;4.15;;
53833;SDS011;39735;51.432;5.482;2024-02-14T03:36:06;15.27;;;4.30;;
53833;SDS011;39735;51.432;5.482;2024-02-14T03:38:31;5.32;;;4.35;;
53833;SDS011;39735;51.432;5.482;2024-02-14T03:40:56;3.70;;;3.35;;
53833;SDS011;39735;51.432;5.482;2024-02-14T03:43:22;10.77;;;4.25;;
53833;SDS011;39735;51.432;5.482;2024-02-14T03:45:49;16.65;;;5.55;;
53833;SDS011;39735;51.432;5.482;2024-02-14T03:48:14;13.98;;;4.40;;
53833;SDS011;39735;51.432;5.482;2024-02-14T03:50:40;6.80;;;4.18;;
53833;SDS011;39735;51.432;5.482;2024-02-14T03:53:05;6.05;;;2.92;;
53833;SDS011;39735;51.432;5.482;2024-02-14T03:55:30;6.22;;;4.35;;
53833;SDS011;39735;51.432;5.482;2024-02-14T03:57:56;9.10;;;5.85;;
53833;SDS011;39735;51.432;5.482;2024-02-14T04:00:21;5.22;;;3.85;;
53833;SDS011;39735;51.432;5.482;2024-02-14T04:02:47;7.53;;;3.65;;
53833;SDS011;39735;51.432;5.482;2024-02-14T04:05:13;25.90;;;5.47;;
53833;SDS011;39735;51.432;5.482;2024-02-14T04:07:39;9.48;;;5.18;;
53833;SDS011;39735;51.432;5.482;2024-02-14T04:10:05;10.85;;;3.67;;
53833;SDS011;39735;51.432;5.482;2024-02-14T04:12:31;7.40;;;2.67;;
53833;SDS011;39735;51.432;5.482;2024-02-14T04:14:56;17.73;;;6.47;;
53833;SDS011;39735;51.432;5.482;2024-02-14T04:17:22;6.30;;;4.30;;
53833;SDS011;39735;51.432;5.482;2024-02-14T04:19:48;4.97;;;3.60;;
53833;SDS011;39735;51.432;5.482;2024-02-14T04:22:14;20.25;;;4.57;;
53833;SDS011;39735;51.432;5.482;2024-02-14T04:24:39;6.50;;;3.83;;
53833;SDS011;39735;51.432;5.482;2024-02-14T04:27:05;9.95;;;3.58;;
53833;SDS011;39735;51.432;5.482;2024-02-14T04:29:30;9.70;;;3.33;;
53833;SDS011;39735;51.432;5.482;2024-02-14T04:31:58;18.40;;;4.15;;
53833;SDS011;39735;51.432;5.482;2024-02-14T04:34:25;5.88;;;3.05;;
53833;SDS011;39735;51.432;5.482;2024-02-14T04:36:51;8.25;;;3.42;;
53833;SDS011;39735;51.432;5.482;2024-02-14T04:39:16;4.47;;;2.63;;
53833;SDS011;39735;51.432;5.482;2024-02-14T04:41:42;14.85;;;5.47;;
53833;SDS011;39735;51.432;5.482;2024-02-14T04:44:07;8.57;;;3.50;;
53833;SDS011;39735;51.432;5.482;2024-02-14T04:46:33;10.27;;;3.38;;
53833;SDS011;39735;51.432;5.482;2024-02-14T04:49:00;8.93;;;3.38;;
53833;SDS011;39735;51.432;5.482;2024-02-14T04:51:28;3.70;;;3.22;;
53833;SDS011;39735;51.432;5.482;2024-02-14T04:53:57;6.05;;;3.17;;
53833;SDS011;39735;51.432;5.482;2024-02-14T04:56:26;6.82;;;4.00;;
53833;SDS011;39735;51.432;5.482;2024-02-14T04:58:54;8.75;;;4.53;;
53833;SDS011;39735;51.432;5.482;2024-02-14T05:01:20;16.73;;;4.95;;
53833;SDS011;39735;51.432;5.482;2024-02-14T05:03:45;12.38;;;5.65;;
53833;SDS011;39735;51.432;5.482;2024-02-14T05:06:10;14.90;;;4.68;;
53833;SDS011;39735;51.432;5.482;2024-02-14T05:08:36;6.80;;;4.55;;
53833;SDS011;39735;51.432;5.482;2024-02-14T05:11:01;4.78;;;3.75;;
53833;SDS011;39735;51.432;5.482;2024-02-14T05:13:27;8.05;;;4.65;;
53833;SDS011;39735;51.432;5.482;2024-02-14T05:15:52;8.00;;;5.00;;
53833;SDS011;39735;51.432;5.482;2024-02-14T05:18:17;10.07;;;4.50;;
53833;SDS011;39735;51.432;5.482;2024-02-14T05:20:43;8.82;;;4.97;;
53833;SDS011;39735;51.432;5.482;2024-02-14T05:23:09;6.72;;;4.15;;
53833;SDS011;39735;51.432;5.482;2024-02-14T05:25:36;9.15;;;4.75;;
53833;SDS011;39735;51.432;5.482;2024-02-14T05:28:01;5.10;;;3.78;;
53833;SDS011;39735;51.432;5.482;2024-02-14T05:30:27;5.40;;;3.35;;
53833;SDS011;39735;51.432;5.482;2024-02-14T05:32:52;11.13;;;5.68;;
53833;SDS011;39735;51.432;5.482;2024-02-14T05:35:17;10.13;;;5.03;;
53833;SDS011;39735;51.432;5.482;2024-02-14T05:37:43;11.98;;;4.35;;
53833;SDS011;39735;51.432;5.482;2024-02-14T05:40:08;8.20;;;4.07;;
53833;SDS011;39735;51.432;5.482;2024-02-14T05:42:34;15.35;;;4.72;;
53833;SDS011;39735;51.432;5.482;2024-02-14T05:44:59;9.25;;;4.25;;
53833;SDS011;39735;51.432;5.482;2024-02-14T05:47:25;11.27;;;5.28;;
53833;SDS011;39735;51.432;5.482;2024-02-14T05:49:50;8.73;;;4.53;;
53833;SDS011;39735;51.432;5.482;2024-02-14T05:52:16;7.30;;;4.13;;
53833;SDS011;39735;51.432;5.482;2024-02-14T05:54:43;9.45;;;4.38;;
53833;SDS011;39735;51.432;5.482;2024-02-14T05:57:08;5.65;;;4.72;;
53833;SDS011;39735;51.432;5.482;2024-02-14T05:59:34;4.97;;;4.28;;
53833;SDS011;39735;51.432;5.482;2024-02-14T06:01:59;11.48;;;4.63;;
53833;SDS011;39735;51.432;5.482;2024-02-14T06:04:27;9.40;;;4.78;;
53833;SDS011;39735;51.432;5.482;2024-02-14T06:06:53;11.77;;;4.20;;
53833;SDS011;39735;51.432;5.482;2024-02-14T06:09:18;12.43;;;6.18;;
53833;SDS011;39735;51.432;5.482;2024-02-14T06:11:44;7.07;;;5.55;;
53833;SDS011;39735;51.432;5.482;2024-02-14T06:14:09;9.50;;;4.85;;
53833;SDS011;39735;51.432;5.482;2024-02-14T06:16:35;11.00;;;6.05;;
53833;SDS011;39735;51.432;5.482;2024-02-14T06:19:04;5.60;;;5.15;;
53833;SDS011;39735;51.432;5.482;2024-02-14T06:21:29;9.73;;;5.15;;
53833;SDS011;39735;51.432;5.482;2024-02-14T06:23:55;12.55;;;6.07;;
53833;SDS011;39735;51.432;5.482;2024-02-14T06:26:21;7.22;;;6.45;;
53833;SDS011;39735;51.432;5.482;2024-02-14T06:28:46;21.35;;;6.78;;
53833;SDS011;39735;51.432;5.482;2024-02-14T06:31:11;6.53;;;5.70;;
53833;SDS011;39735;51.432;5.482;2024-02-14T06:33:37;16.40;;;6.72;;
53833;SDS011;39735;51.432;5.482;2024-02-14T06:36:02;10.13;;;4.85;;
53833;SDS011;39735;51.432;5.482;2024-02-14T06:38:28;11.68;;;5.88;;
53833;SDS011;39735;51.432;5.482;2024-02-14T06:40:53;8.23;;;6.50;;
53833;SDS011;39735;51.432;5.482;2024-02-14T06:43:19;27.92;;;8.57;;
53833;SDS011;39735;51.432;5.482;2024-02-14T06:45:45;17.65;;;6.18;;
53833;SDS011;39735;51.432;5.482;2024-02-14T06:48:10;10.70;;;5.72;;
53833;SDS011;39735;51.432;5.482;2024-02-14T06:50:35;9.60;;;4.88;;
53833;SDS011;39735;51.432;5.482;2024-02-14T06:53:01;10.07;;;5.53;;
53833;SDS011;39735;51.432;5.482;2024-02-14T06:55:27;11.75;;;5.28;;
53833;SDS011;39735;51.432;5.482;2024-02-14T06:57:52;13.98;;;5.18;;
53833;SDS011;39735;51.432;5.482;2024-02-14T07:00:19;14.70;;;6.15;;
53833;SDS011;39735;51.432;5.482;2024-02-14T07:02:44;18.55;;;6.88;;
53833;SDS011;39735;51.432;5.482;2024-02-14T07:05:13;12.73;;;6.28;;
53833;SDS011;39735;51.432;5.482;2024-02-14T07:07:39;16.80;;;5.95;;
53833;SDS011;39735;51.432;5.482;2024-02-14T07:10:05;9.25;;;5.93;;
53833;SDS011;39735;51.432;5.482;2024-02-14T07:12:31;10.60;;;7.45;;
53833;SDS011;39735;51.432;5.482;2024-02-14T07:14:57;9.00;;;5.75;;
53833;SDS011;39735;51.432;5.482;2024-02-14T07:17:22;18.25;;;6.20;;
53833;SDS011;39735;51.432;5.482;2024-02-14T07:19:48;13.27;;;7.15;;
53833;SDS011;39735;51.432;5.482;2024-02-14T07:22:15;17.85;;;6.90;;
53833;SDS011;39735;51.432;5.482;2024-02-14T07:24:41;11.77;;;6.70;;
53833;SDS011;39735;51.432;5.482;2024-02-14T07:27:07;42.10;;;8.52;;
53833;SDS011;39735;51.432;5.482;2024-02-14T07:29:33;20.98;;;8.15;;
53833;SDS011;39735;51.432;5.482;2024-02-14T07:31:59;19.10;;;7.32;;
53833;SDS011;39735;51.432;5.482;2024-02-14T07:34:26;17.00;;;7.22;;
53833;SDS011;39735;51.432;5.482;2024-02-14T07:36:52;18.38;;;7.65;;
53833;SDS011;39735;51.432;5.482;2024-02-14T07:39:17;32.53;;;8.85;;
53833;SDS011;39735;51.432;5.482;2024-02-14T07:41:43;14.23;;;7.85;;
53833;SDS011;39735;51.432;5.482;2024-02-14T07:44:09;45.20;;;11.38;;
53833;SDS011;39735;51.432;5.482;2024-02-14T07:46:34;18.85;;;8.07;;
53833;SDS011;39735;51.432;5.482;2024-02-14T07:48:59;19.55;;;8.32;;
53833;SDS011;39735;51.432;5.482;2024-02-14T07:51:25;22.10;;;9.07;;
53833;SDS011;39735;51.432;5.482;2024-02-14T07:53:50;28.63;;;9.35;;
53833;SDS011;39735;51.432;5.482;2024-02-14T07:56:16;22.63;;;7.80;;
53833;SDS011;39735;51.432;5.482;2024-02-14T07:58:43;13.32;;;8.00;;
53833;SDS011;39735;51.432;5.482;2024-02-14T08:01:09;23.08;;;8.82;;
53833;SDS011;39735;51.432;5.482;2024-02-14T08:03:34;27.95;;;7.93;;
53833;SDS011;39735;51.432;5.482;2024-02-14T08:06:00;22.20;;;8.27;;
53833;SDS011;39735;51.432;5.482;2024-02-14T08:08:25;24.60;;;8.60;;
53833;SDS011;39735;51.432;5.482;2024-02-14T08:10:52;33.33;;;8.05;;
53833;SDS011;39735;51.432;5.482;2024-02-14T08:13:17;17.83;;;8.15;;
53833;SDS011;39735;51.432;5.482;2024-02-14T08:15:43;18.38;;;7.50;;
53833;SDS011;39735;51.432;5.482;2024-02-14T08:18:08;25.38;;;8.40;;
53833;SDS011;39735;51.432;5.482;2024-02-14T08:20:34;17.80;;;8.05;;
53833;SDS011;39735;51.432;5.482;2024-02-14T08:22:59;25.15;;;8.45;;
53833;SDS011;39735;51.432;5.482;2024-02-14T08:25:25;17.70;;;7.13;;
53833;SDS011;39735;51.432;5.482;2024-02-14T08:27:51;20.17;;;9.43;;
53833;SDS011;39735;51.432;5.482;2024-02-14T08:30:17;22.40;;;9.23;;
53833;SDS011;39735;51.432;5.482;2024-02-14T08:32:44;26.23;;;8.35;;
53833;SDS011;39735;51.432;5.482;2024-02-14T08:35:10;21.17;;;9.57;;
53833;SDS011;39735;51.432;5.482;2024-02-14T08:37:35;32.35;;;9.85;;
53833;SDS011;39735;51.432;5.482;2024-02-14T08:40:03;20.45;;;8.50;;
53833;SDS011;39735;51.432;5.482;2024-02-14T08:42:31;26.27;;;8.23;;
53833;SDS011;39735;51.432;5.482;2024-02-14T08:44:57;24.50;;;8.63;;
53833;SDS011;39735;51.432;5.482;2024-02-14T08:47:22;23.60;;;9.70;;
53833;SDS011;39735;51.432;5.482;2024-02-14T08:49:47;13.93;;;7.20;;
53833;SDS011;39735;51.432;5.482;2024-02-14T08:52:13;16.30;;;7.88;;
53833;SDS011;39735;51.432;5.482;2024-02-14T08:54:38;20.60;;;8.27;;
53833;SDS011;39735;51.432;5.482;2024-02-14T08:57:04;23.05;;;8.25;;
53833;SDS011;39735;51.432;5.482;2024-02-14T08:59:29;23.88;;;8.40;;
53833;SDS011;39735;51.432;5.482;2024-02-14T09:01:55;18.40;;;7.60;;
53833;SDS011;39735;51.432;5.482;2024-02-14T09:04:21;19.73;;;7.03;;
53833;SDS011;39735;51.432;5.482;2024-02-14T09:06:46;16.05;;;6.50;;
53833;SDS011;39735;51.432;5.482;2024-02-14T09:09:12;17.42;;;7.97;;
53833;SDS011;39735;51.432;5.482;2024-02-14T09:11:39;19.55;;;7.53;;
53833;SDS011;39735;51.432;5.482;2024-02-14T09:14:06;20.83;;;9.27;;
53833;SDS011;39735;51.432;5.482;2024-02-14T09:16:34;17.00;;;6.50;;
53833;SDS011;39735;51.432;5.482;2024-02-14T09:19:00;18.67;;;7.45;;
53833;SDS011;39735;51.432;5.482;2024-02-14T09:21:26;16.10;;;7.45;;
53833;SDS011;39735;51.432;5.482;2024-02-14T09:23:52;21.48;;;8.00;;
53833;SDS011;39735;51.432;5.482;2024-02-14T09:26:18;11.98;;;5.93;;
53833;SDS011;39735;51.432;5.482;2024-02-14T09:28:43;19.17;;;7.80;;
53833;SDS011;39735;51.432;5.482;2024-02-14T09:31:09;23.23;;;7.32;;
53833;SDS011;39735;51.432;5.482;2024-02-14T09:33:36;11.70;;;6.50;;
53833;SDS011;39735;51.432;5.482;2024-02-14T09:36:02;17.23;;;6.38;;
53833;SDS011;39735;51.432;5.482;2024-02-14T09:38:29;27.00;;;7.03;;
53833;SDS011;39735;51.432;5.482;2024-02-14T09:40:54;9.40;;;6.22;;
53833;SDS011;39735;51.432;5.482;2024-02-14T09:43:34;18.08;;;6.80;;
53833;SDS011;39735;51.432;5.482;2024-02-14T09:46:01;13.55;;;5.63;;
53833;SDS011;39735;51.432;5.482;2024-02-14T09:48:28;20.23;;;7.15;;
53833;SDS011;39735;51.432;5.482;2024-02-14T09:50:54;14.68;;;6.63;;
53833;SDS011;39735;51.432;5.482;2024-02-14T09:53:21;9.48;;;5.03;;
53833;SDS011;39735;51.432;5.482;2024-02-14T09:55:46;8.77;;;5.40;;
53833;SDS011;39735;51.432;5.482;2024-02-14T09:58:12;11.02;;;5.90;;
53833;SDS011;39735;51.432;5.482;2024-02-14T10:00:38;22.52;;;5.55;;
53833;SDS011;39735;51.432;5.482;2024-02-14T10:03:03;11.93;;;5.72;;
53833;SDS011;39735;51.432;5.482;2024-02-14T10:05:29;16.38;;;5.97;;
53833;SDS011;39735;51.432;5.482;2024-02-14T10:07:56;24.38;;;5.60;;
53833;SDS011;39735;51.432;5.482;2024-02-14T10:10:21;22.08;;;7.55;;
53833;SDS011;39735;51.432;5.482;2024-02-14T10:12:47;21.83;;;7.32;;
53833;SDS011;39735;51.432;5.482;2024-02-14T10:15:12;38.90;;;6.15;;
53833;SDS011;39735;51.432;5.482;2024-02-14T10:17:41;22.95;;;6.07;;
53833;SDS011;39735;51.432;5.482;2024-02-14T10:20:06;30.00;;;7.38;;
53833;SDS011;39735;51.432;5.482;2024-02-14T10:22:33;23.60;;;6.25;;
53833;SDS011;39735;51.432;5.482;2024-02-14T10:25:02;19.00;;;6.55;;
53833;SDS011;39735;51.432;5.482;2024-02-14T10:27:30;13.52;;;6.80;;
53833;SDS011;39735;51.432;5.482;2024-02-14T10:29:57;22.45;;;7.20;;
53833;SDS011;39735;51.432;5.482;2024-02-14T10:32:22;33.85;;;9.13;;
53833;SDS011;39735;51.432;5.482;2024-02-14T10:34:49;12.00;;;5.15;;
53833;SDS011;39735;51.432;5.482;2024-02-14T10:37:14;21.33;;;6.63;;
53833;SDS011;39735;51.432;5.482;2024-02-14T10:39:41;16.42;;;6.47;;
53833;SDS011;39735;51.432;5.482;2024-02-14T10:42:07;20.67;;;6.70;;
53833;SDS011;39735;51.432;5.482;2024-02-14T10:44:34;12.55;;;7.20;;
53833;SDS011;39735;51.432;5.482;2024-02-14T10:46:59;22.77;;;6.50;;
53833;SDS011;39735;51.432;5.482;2024-02-14T10:49:28;11.15;;;7.38;;
53833;SDS011;39735;51.432;5.482;2024-02-14T10:51:54;7.78;;;6.88;;
53833;SDS011;39735;51.432;5.482;2024-02-14T10:54:21;17.15;;;7.18;;
53833;SDS011;39735;51.432;5.482;2024-02-14T10:56:50;8.45;;;7.55;;
53833;SDS011;39735;51.432;5.482;2024-02-14T10:59:17;14.38;;;7.03;;
53833;SDS011;39735;51.432;5.482;2024-02-14T11:01:44;13.88;;;6.70;;
53833;SDS011;39735;51.432;5.482;2024-02-14T11:04:10;11.63;;;7.35;;
53833;SDS011;39735;51.432;5.482;2024-02-14T11:06:48;13.45;;;7.13;;
53833;SDS011;39735;51.432;5.482;2024-02-14T11:09:22;20.25;;;7.20;;
53833;SDS011;39735;51.432;5.482;2024-02-14T11:12:02;10.82;;;5.97;;
53833;SDS011;39735;51.432;5.482;2024-02-14T11:14:32;16.65;;;7.03;;
53833;SDS011;39735;51.432;5.482;2024-02-14T11:17:12;18.25;;;10.63;;
53833;SDS011;39735;51.432;5.482;2024-02-14T11:19:38;6.53;;;5.30;;
53833;SDS011;39735;51.432;5.482;2024-02-14T11:22:13;11.77;;;5.85;;
53833;SDS011;39735;51.432;5.482;2024-02-14T11:24:45;9.35;;;5.88;;
53833;SDS011;39735;51.432;5.482;2024-02-14T11:27:11;9.02;;;5.25;;
53833;SDS011;39735;51.432;5.482;2024-02-14T11:29:38;6.53;;;5.15;;
53833;SDS011;39735;51.432;5.482;2024-02-14T11:32:05;6.53;;;5.20;;
53833;SDS011;39735;51.432;5.482;2024-02-14T11:34:33;5.40;;;5.00;;
53833;SDS011;39735;51.432;5.482;2024-02-14T11:36:58;10.55;;;5.53;;
53833;SDS011;39735;51.432;5.482;2024-02-14T11:39:25;6.03;;;5.53;;
53833;SDS011;39735;51.432;5.482;2024-02-14T11:41:50;27.40;;;6.50;;
53833;SDS011;39735;51.432;5.482;2024-02-14T11:44:16;9.75;;;6.28;;
53833;SDS011;39735;51.432;5.482;2024-02-14T11:46:41;6.68;;;5.47;;
53833;SDS011;39735;51.432;5.482;2024-02-14T11:49:07;17.05;;;6.30;;
53833;SDS011;39735;51.432;5.482;2024-02-14T11:51:34;15.20;;;7.95;;
53833;SDS011;39735;51.432;5.482;2024-02-14T11:54:03;6.35;;;5.75;;
53833;SDS011;39735;51.432;5.482;2024-02-14T11:56:39;8.82;;;6.45;;
53833;SDS011;39735;51.432;5.482;2024-02-14T11:59:06;6.97;;;6.22;;
53833;SDS011;39735;51.432;5.482;2024-02-14T12:01:33;10.13;;;6.25;;
53833;SDS011;39735;51.432;5.482;2024-02-14T12:04:04;6.68;;;5.72;;
53833;SDS011;39735;51.432;5.482;2024-02-14T12:06:30;8.45;;;6.30;;
53833;SDS011;39735;51.432;5.482;2024-02-14T12:09:03;10.20;;;6.20;;
53833;SDS011;39735;51.432;5.482;2024-02-14T12:11:36;8.32;;;5.68;;
53833;SDS011;39735;51.432;5.482;2024-02-14T12:14:05;6.53;;;4.97;;
53833;SDS011;39735;51.432;5.482;2024-02-14T12:16:31;4.25;;;4.05;;
53833;SDS011;39735;51.432;5.482;2024-02-14T12:19:19;6.28;;;4.70;;
53833;SDS011;39735;51.432;5.482;2024-02-14T12:21:45;14.40;;;4.57;;
53833;SDS011;39735;51.432;5.482;2024-02-14T12:24:11;5.38;;;4.85;;
53833;SDS011;39735;51.432;5.482;2024-02-14T12:26:37;5.15;;;4.85;;
53833;SDS011;39735;51.432;5.482;2024-02-14T12:29:04;4.88;;;3.75;;
53833;SDS011;39735;51.432;5.482;2024-02-14T12:31:31;12.00;;;5.03;;
53833;SDS011;39735;51.432;5.482;2024-02-14T12:33:57;6.80;;;3.40;;
53833;SDS011;39735;51.432;5.482;2024-02-14T12:36:34;4.72;;;4.30;;
53833;SDS011;39735;51.432;5.482;2024-02-14T12:39:03;5.50;;;3.67;;
53833;SDS011;39735;51.432;5.482;2024-02-14T12:41:28;3.90;;;3.28;;
53833;SDS011;39735;51.432;5.482;2024-02-14T12:43:55;3.75;;;3.55;;
53833;SDS011;39735;51.432;5.482;2024-02-14T12:46:21;4.20;;;3.78;;
53833;SDS011;39735;51.432;5.482;2024-02-14T12:48:46;5.32;;;3.75;;
53833;SDS011;39735;51.432;5.482;2024-02-14T12:51:13;7.57;;;3.60;;
53833;SDS011;39735;51.432;5.482;2024-02-14T12:53:39;5.68;;;3.47;;
53833;SDS011;39735;51.432;5.482;2024-02-14T12:56:04;3.45;;;2.70;;
53833;SDS011;39735;51.432;5.482;2024-02-14T12:58:31;3.83;;;3.47;;
53833;SDS011;39735;51.432;5.482;2024-02-14T13:00:57;7.25;;;2.95;;
53833;SDS011;39735;51.432;5.482;2024-02-14T13:03:23;12.55;;;3.05;;
53833;SDS011;39735;51.432;5.482;2024-02-14T13:05:49;2.85;;;2.63;;
53833;SDS011;39735;51.432;5.482;2024-02-14T13:08:16;2.15;;;2.05;;
53833;SDS011;39735;51.432;5.482;2024-02-14T13:10:41;2.53;;;2.33;;
53833;SDS011;39735;51.432;5.482;2024-02-14T13:13:07;2.17;;;1.98;;
53833;SDS011;39735;51.432;5.482;2024-02-14T13:15:32;14.35;;;2.30;;
53833;SDS011;39735;51.432;5.482;2024-02-14T13:17:57;3.38;;;2.03;;
53833;SDS011;39735;51.432;5.482;2024-02-14T13:20:24;1.88;;;1.77;;
53833;SDS011;39735;51.432;5.482;2024-02-14T13:22:50;5.80;;;2.63;;
53833;SDS011;39735;51.432;5.482;2024-02-14T13:25:15;3.15;;;1.77;;
53833;SDS011;39735;51.432;5.482;2024-02-14T13:27:40;8.82;;;2.10;;
53833;SDS011;39735;51.432;5.482;2024-02-14T13:30:06;17.98;;;3.65;;
53833;SDS011;39735;51.432;5.482;2024-02-14T13:32:32;5.88;;;2.40;;
53833;SDS011;39735;51.432;5.482;2024-02-14T13:34:57;2.70;;;2.13;;
53833;SDS011;39735;51.432;5.482;2024-02-14T13:37:23;3.08;;;1.80;;
53833;SDS011;39735;51.432;5.482;2024-02-14T13:39:49;5.50;;;2.22;;
53833;SDS011;39735;51.432;5.482;2024-02-14T13:42:15;12.35;;;3.22;;
53833;SDS011;39735;51.432;5.482;2024-02-14T13:44:40;1.65;;;1.55;;
53833;SDS011;39735;51.432;5.482;2024-02-14T13:47:06;3.75;;;1.80;;
53833;SDS011;39735;51.432;5.482;2024-02-14T13:49:31;11.00;;;4.43;;
53833;SDS011;39735;51.432;5.482;2024-02-14T13:51:57;3.78;;;1.60;;
53833;SDS011;39735;51.432;5.482;2024-02-14T13:54:23;2.45;;;2.25;;
53833;SDS011;39735;51.432;5.482;2024-02-14T13:56:49;3.03;;;2.70;;
53833;SDS011;39735;51.432;5.482;2024-02-14T13:59:15;2.08;;;1.75;;
53833;SDS011;39735;51.432;5.482;2024-02-14T14:01:41;2.28;;;1.90;;
53833;SDS011;39735;51.432;5.482;2024-02-14T14:04:07;12.40;;;4.03;;
53833;SDS011;39735;51.432;5.482;2024-02-14T14:06:32;6.82;;;3.20;;
53833;SDS011;39735;51.432;5.482;2024-02-14T14:08:58;4.55;;;2.47;;
53833;SDS011;39735;51.432;5.482;2024-02-14T14:11:24;6.10;;;2.80;;
53833;SDS011;39735;51.432;5.482;2024-02-14T14:13:50;8.68;;;2.55;;
53833;SDS011;39735;51.432;5.482;2024-02-14T14:16:15;6.72;;;3.05;;
53833;SDS011;39735;51.432;5.482;2024-02-14T14:18:41;11.77;;;3.03;;
53833;SDS011;39735;51.432;5.482;2024-02-14T14:21:06;2.58;;;1.77;;
53833;SDS011;39735;51.432;5.482;2024-02-14T14:23:31;2.10;;;1.95;;
53833;SDS011;39735;51.432;5.482;2024-02-14T14:25:57;2.35;;;1.77;;
53833;SDS011;39735;51.432;5.482;2024-02-14T14:28:23;3.60;;;2.30;;
53833;SDS011;39735;51.432;5.482;2024-02-14T14:30:50;12.90;;;3.00;;
53833;SDS011;39735;51.432;5.482;2024-02-14T14:33:16;5.45;;;2.55;;
53833;SDS011;39735;51.432;5.482;2024-02-14T14:35:41;8.77;;;2.10;;
53833;SDS011;39735;51.432;5.482;2024-02-14T14:38:07;4.20;;;2.45;;
53833;SDS011;39735;51.432;5.482;2024-02-14T14:40:32;5.10;;;2.03;;
53833;SDS011;39735;51.432;5.482;2024-02-14T14:42:58;8.70;;;2.63;;
53833;SDS011;39735;51.432;5.482;2024-02-14T14:45:23;11.75;;;4.85;;
53833;SDS011;39735;51.432;5.482;2024-02-14T14:47:49;1.45;;;1.45;;
53833;SDS011;39735;51.432;5.482;2024-02-14T14:50:14;4.85;;;2.63;;
53833;SDS011;39735;51.432;5.482;2024-02-14T14:52:43;4.65;;;2.33;;
53833;SDS011;39735;51.432;5.482;2024-02-14T14:55:09;12.82;;;2.65;;